Carrier Princess — CZ3582 — position and weather

sailwx.info

Track history (hours):
 
Tides and Currents Weather Stations Pressure Air Temp Water Temp Dewpoint Dewpoint Depression Visibility Wind Speed Wind Dir Waves Ship Positions

Carrier Princess

Last reported at 2014-Dec-22 06:33 UTC. Time now 2014-Dec-22 07:07 UTC.
Position N 49°09' W 123°02'.

Length 112 m; draft 3 m.

Type: Cargo ship. MMSI: 316003656.

Date/timePositionNaut miles runAvg speedWind from/ knotsBaromVisibWave heightAir tempDewpointWater temp
2014-Dec-22 06:33N 49°09' W 123°02'0 0.0
2014-Dec-22 05:33N 49°09' W 123°02'0 0.0
2014-Dec-22 04:33N 49°09' W 123°02'0 0.0
2014-Dec-22 03:33N 49°09' W 123°02'0 0.0
2014-Dec-22 02:33N 49°09' W 123°02'0 0.0
2014-Dec-22 01:33N 49°09' W 123°02'0 0.0
2014-Dec-22 00:33N 49°09' W 123°02'0 0.0
2014-Dec-21 23:33N 49°09' W 123°02'0 0.0
2014-Dec-21 22:34N 49°09' W 123°02'0 0.0
2014-Dec-21 21:33N 49°09' W 123°02'0 0.0
2014-Dec-21 20:33N 49°09' W 123°02'0 0.0
2014-Dec-21 19:33N 49°09' W 123°02'0 0.0
2014-Dec-21 18:33N 49°09' W 123°02'0 0.0
2014-Dec-21 17:34N 49°09' W 123°02'0 0.0
2014-Dec-21 16:33N 49°09' W 123°02'1 1.3
2014-Dec-21 15:33N 49°08' W 123°04'1110.6
2014-Dec-21 14:34N 49°06' W 123°19'1110.7
2014-Dec-21 13:33N 49°10' W 123°35'1110.8
2014-Dec-21 12:33N 49°13' W 123°51'4 4.4
2014-Dec-21 11:33N 49°10' W 123°56'0 0.0
2014-Dec-21 10:33N 49°10' W 123°56'1 0.6
2014-Dec-21 09:33N 49°10' W 123°55'9 8.6
2014-Dec-21 08:33N 49°12' W 123°42'10 9.7
2014-Dec-21 07:33N 49°09' W 123°28'1110.8
2014-Dec-21 06:34N 49°07' W 123°12'7 6.6
2014-Dec-21 05:33N 49°09' W 123°02'0 0.0
2014-Dec-21 04:33N 49°09' W 123°02'0 0.0
2014-Dec-21 03:33N 49°09' W 123°02'0 0.0
2014-Dec-21 02:33N 49°09' W 123°02'0 0.0
2014-Dec-21 01:33N 49°09' W 123°02'0 0.0
2014-Dec-21 00:33N 49°09' W 123°02'0 0.0
2014-Dec-20 23:33N 49°09' W 123°02'3 2.7
2014-Dec-20 22:34N 49°07' W 123°05'1312.5
2014-Dec-20 21:34N 49°08' W 123°24'1413.9
2014-Dec-20 20:33N 49°12' W 123°44'8 7.7
2014-Dec-20 19:33N 49°10' W 123°56'0 0.0
2014-Dec-20 18:25N 49°10' W 123°56'0 0.0
2014-Dec-20 17:25N 49°10' W 123°56'0 0.0
2014-Dec-20 16:30N 49°10' W 123°56'0 0.0
2014-Dec-20 15:28N 49°10' W 123°56'0 0.0
2014-Dec-20 14:26N 49°10' W 123°56'0 0.0
2014-Dec-20 13:22N 49°10' W 123°56'2 2.0
2014-Dec-20 12:34N 49°11' W 123°54'1212.1
2014-Dec-20 11:33N 49°11' W 123°35'1413.8
2014-Dec-20 10:33N 49°08' W 123°15'8 8.3
2014-Dec-20 09:33N 49°09' W 123°02'0 0.0
2014-Dec-20 08:33N 49°09' W 123°02'6 5.6
2014-Dec-20 07:33N 49°07' W 123°10'1212.4
2014-Dec-20 06:34N 49°09' W 123°29'1414.3
2014-Dec-20 05:33N 49°13' W 123°50'5 4.4
2014-Dec-20 04:28N 49°10' W 123°56'1 0.6
2014-Dec-20 03:33N 49°10' W 123°55'1111.5
2014-Dec-20 02:33N 49°12' W 123°38'1413.8
2014-Dec-20 01:34N 49°06' W 123°19'1111.2
2014-Dec-20 00:33N 49°09' W 123°02'0 0.0
2014-Dec-19 23:33N 49°09' W 123°02'4 3.8
2014-Dec-19 22:33N 49°07' W 123°07'10 9.9
2014-Dec-19 21:33N 49°01' W 123°20'1413.8
2014-Dec-19 20:33N 48°47' W 123°21'7 6.6
2014-Dec-19 19:33N 48°41' W 123°24'0 0.0
2014-Dec-19 18:33N 48°41' W 123°24'0 0.0
2014-Dec-19 17:33N 48°41' W 123°24'0 0.0
2014-Dec-19 16:33N 48°41' W 123°24'0 0.0
2014-Dec-19 15:33N 48°41' W 123°24'0 0.0
2014-Dec-19 14:33N 48°41' W 123°24'0 0.0
2014-Dec-19 13:33N 48°41' W 123°24'3 2.6
2014-Dec-19 12:32N 48°44' W 123°24'1111.2
2014-Dec-19 11:34N 48°54' W 123°18'1413.6
2014-Dec-19 10:34N 49°08' W 123°14'8 8.0
2014-Dec-19 09:33N 49°09' W 123°02'0 0.0
2014-Dec-19 08:33N 49°09' W 123°02'7 6.5
2014-Dec-19 07:34N 49°07' W 123°12'1212.4
2014-Dec-19 06:34N 49°09' W 123°31'1414.4
2014-Dec-19 05:33N 49°12' W 123°52'3 3.0
2014-Dec-19 04:26N 49°10' W 123°56'1 0.6
2014-Dec-19 03:33N 49°10' W 123°55'1111.2
2014-Dec-19 02:33N 49°12' W 123°38'1313.5
2014-Dec-19 01:33N 49°06' W 123°19'1211.6
2014-Dec-19 00:34N 49°09' W 123°02'0 0.0
2014-Dec-18 23:34N 49°09' W 123°02'6 5.7
2014-Dec-18 22:33N 49°07' W 123°10'10 9.8
2014-Dec-18 21:33N 48°59' W 123°21'1110.9
2014-Dec-18 20:33N 48°49' W 123°20'8 7.8
2014-Dec-18 19:33N 48°41' W 123°24'0 0.0
2014-Dec-18 18:33N 48°41' W 123°24'0 0.0
2014-Dec-18 17:33N 48°41' W 123°24'0 0.0
2014-Dec-18 16:33N 48°41' W 123°24'0 0.0
2014-Dec-18 15:33N 48°41' W 123°24'0 0.0
2014-Dec-18 14:33N 48°41' W 123°24'0 0.0
2014-Dec-18 13:33N 48°41' W 123°24'1 1.1
2014-Dec-18 12:33N 48°42' W 123°24'1312.7
2014-Dec-18 11:33N 48°54' W 123°18'1313.2
2014-Dec-18 10:33N 49°08' W 123°15'9 8.6
2014-Dec-18 09:33N 49°09' W 123°02'0 0.0
2014-Dec-18 08:33N 49°09' W 123°02'7 7.2
2014-Dec-18 07:33N 49°08' W 123°13'1211.9
2014-Dec-18 06:33N 49°09' W 123°31'1312.9
2014-Dec-18 05:33N 49°13' W 123°50'5 4.7
2014-Dec-18 04:33N 49°10' W 123°56'1 1.0
2014-Dec-18 03:32N 49°10' W 123°54'1010.6
2014-Dec-18 02:33N 49°12' W 123°38'1313.3
2014-Dec-18 01:33N 49°06' W 123°20'1211.8
2014-Dec-18 00:34N 49°09' W 123°02'0 0.1
2014-Dec-17 23:33N 49°09' W 123°02'5 4.7
2014-Dec-17 22:33N 49°06' W 123°08'8 8.4
2014-Dec-17 21:33N 49°01' W 123°18'1312.5
2014-Dec-17 20:33N 48°49' W 123°20'8 8.0
2014-Dec-17 19:34N 48°41' W 123°24'0 0.0
2014-Dec-17 18:33N 48°41' W 123°24'0 0.0
2014-Dec-17 17:34N 48°41' W 123°24'0 0.0
2014-Dec-17 16:34N 48°41' W 123°24'0 0.0
2014-Dec-17 15:34N 48°41' W 123°24'0 0.0
2014-Dec-17 14:34N 48°41' W 123°24'0 0.0
2014-Dec-17 13:34N 48°41' W 123°24'3 3.0
2014-Dec-17 12:33N 48°43' W 123°21'1414.4
2014-Dec-17 11:33N 48°58' W 123°18'1110.7
2014-Dec-17 10:33N 49°07' W 123°11'6 6.3
2014-Dec-17 09:33N 49°09' W 123°02'0 0.0
2014-Dec-17 08:33N 49°09' W 123°02'7 7.0
2014-Dec-17 07:34N 49°08' W 123°13'1212.0
2014-Dec-17 06:33N 49°09' W 123°31'1313.1
2014-Dec-17 05:33N 49°13' W 123°50'5 5.1
2014-Dec-17 04:33N 49°10' W 123°56'0 0.1
2014-Dec-17 03:33N 49°10' W 123°56'1111.1
2014-Dec-17 02:33N 49°11' W 123°39'1313.5
2014-Dec-17 01:34N 49°06' W 123°20'1211.7
2014-Dec-17 00:33N 49°09' W 123°02'0 0.0
2014-Dec-16 23:33N 49°09' W 123°02'4 4.4
2014-Dec-16 22:33N 49°06' W 123°08'9 9.4
2014-Dec-16 21:33N 49°00' W 123°19'1313.1
2014-Dec-16 20:33N 48°47' W 123°21'6 6.4
2014-Dec-16 19:34N 48°41' W 123°24'0 0.0
2014-Dec-16 18:34N 48°41' W 123°24'0 0.0
2014-Dec-16 17:34N 48°41' W 123°24'0 0.0
2014-Dec-16 16:33N 48°41' W 123°24'0 0.0
2014-Dec-16 15:34N 48°41' W 123°24'0 0.0
2014-Dec-16 14:34N 48°41' W 123°24'0 0.0
2014-Dec-16 13:34N 48°41' W 123°24'3 2.8
2014-Dec-16 12:33N 48°44' W 123°23'1111.3
2014-Dec-16 11:33N 48°55' W 123°18'1312.9
2014-Dec-16 10:33N 49°07' W 123°15'9 8.8
2014-Dec-16 09:33N 49°09' W 123°02'0 0.0
2014-Dec-16 08:33N 49°09' W 123°02'7 7.2
2014-Dec-16 07:34N 49°08' W 123°13'1211.5
2014-Dec-16 06:33N 49°09' W 123°31'1413.6
2014-Dec-16 05:33N 49°13' W 123°50'5 4.4
2014-Dec-16 04:32N 49°10' W 123°56'1 1.1
2014-Dec-16 03:32N 49°10' W 123°54'1111.0
2014-Dec-16 02:33N 49°11' W 123°38'1312.5
2014-Dec-16 01:33N 49°06' W 123°20'1210.8
2014-Dec-16 00:26N 49°09' W 123°02'0 0.0
2014-Dec-15 23:33N 49°09' W 123°02'0 0.0
2014-Dec-15 22:34N 49°09' W 123°02'0 0.2
2014-Dec-15 21:33N 49°09' W 123°02'0 0.0
2014-Dec-15 20:33N 49°09' W 123°02'0 0.0
2014-Dec-15 19:33N 49°09' W 123°02'0 0.0
2014-Dec-15 18:34N 49°09' W 123°02'0 0.0
2014-Dec-15 17:33N 49°09' W 123°02'0 0.0
2014-Dec-15 16:34N 49°09' W 123°02'0 0.0
2014-Dec-15 15:33N 49°09' W 123°02'0 0.0
2014-Dec-15 14:33N 49°09' W 123°02'0 0.0
2014-Dec-15 13:33N 49°09' W 123°02'0 0.0
2014-Dec-15 12:33N 49°09' W 123°02'0 0.0
2014-Dec-15 11:33N 49°09' W 123°02'0 0.0
2014-Dec-15 10:33N 49°09' W 123°02'0 0.0
2014-Dec-15 09:33N 49°09' W 123°02'0 0.0
2014-Dec-15 08:33N 49°09' W 123°02'0 0.0
2014-Dec-15 07:33N 49°09' W 123°02'0 0.0
2014-Dec-15 06:33N 49°09' W 123°02'0 0.0
2014-Dec-15 05:33N 49°09' W 123°02'0 0.0
2014-Dec-15 04:33N 49°09' W 123°02'0 0.0
2014-Dec-15 03:33N 49°09' W 123°02'0 0.0
2014-Dec-15 02:33N 49°09' W 123°02'0 0.0
2014-Dec-15 01:33N 49°09' W 123°02'0 0.0
2014-Dec-15 00:33N 49°09' W 123°02'0 0.0
2014-Dec-14 23:33N 49°09' W 123°02'0 0.0
2014-Dec-14 22:33N 49°09' W 123°02'0 0.0
2014-Dec-14 21:33N 49°09' W 123°02'0 0.0
2014-Dec-14 20:33N 49°09' W 123°02'0 0.0
2014-Dec-14 19:33N 49°09' W 123°02'0 0.0
2014-Dec-14 18:33N 49°09' W 123°02'0 0.0
2014-Dec-14 17:33N 49°09' W 123°02'0 0.0
2014-Dec-14 16:33N 49°09' W 123°02'2 2.0
2014-Dec-14 15:33N 49°07' W 123°04'10 9.8
2014-Dec-14 14:33N 49°06' W 123°19'1010.4
2014-Dec-14 13:33N 49°09' W 123°34'1110.5
2014-Dec-14 12:33N 49°13' W 123°49'5 4.4
2014-Dec-14 11:23N 49°10' W 123°56'2 0.9
2014-Dec-14 09:33N 49°11' W 123°54'8 8.1
2014-Dec-14 08:33N 49°12' W 123°42'10 9.7
2014-Dec-14 07:33N 49°09' W 123°28'1010.0
2014-Dec-14 06:33N 49°08' W 123°12'7 6.9
2014-Dec-14 05:34N 49°09' W 123°02'0 0.0
2014-Dec-14 04:34N 49°09' W 123°02'0 0.0
2014-Dec-14 03:33N 49°09' W 123°02'0 0.0
2014-Dec-14 02:33N 49°09' W 123°02'0 0.0
2014-Dec-14 01:33N 49°09' W 123°02'0 0.0
2014-Dec-14 00:34N 49°09' W 123°02'0 0.0
2014-Dec-13 23:33N 49°09' W 123°02'4 3.7
2014-Dec-13 22:33N 49°07' W 123°07'1211.6
2014-Dec-13 21:34N 49°07' W 123°24'1414.0
2014-Dec-13 20:33N 49°12' W 123°44'8 7.6
2014-Dec-13 19:33N 49°10' W 123°56'0 0.0
2014-Dec-13 18:33N 49°10' W 123°56'0 0.0
2014-Dec-13 17:23N 49°10' W 123°56'0 0.0
2014-Dec-13 16:23N 49°10' W 123°56'0 0.0
2014-Dec-13 15:33N 49°10' W 123°56'0 0.0
2014-Dec-13 13:32N 49°10' W 123°56'4 4.5
2014-Dec-13 12:34N 49°13' W 123°51'1111.2
2014-Dec-13 11:33N 49°11' W 123°34'1212.2
2014-Dec-13 10:33N 49°07' W 123°16'9 9.4
2014-Dec-13 09:34N 49°09' W 123°02'0 0.0
2014-Dec-13 08:34N 49°09' W 123°02'7 6.8
2014-Dec-13 07:33N 49°07' W 123°12'1110.9
2014-Dec-13 06:33N 49°08' W 123°29'1312.4
2014-Dec-13 05:33N 49°13' W 123°47'6 6.0
2014-Dec-13 04:28N 49°10' W 123°56'0 0.1
2014-Dec-13 03:33N 49°10' W 123°56'1010.5
2014-Dec-13 02:33N 49°12' W 123°40'1312.7
2014-Dec-13 01:33N 49°07' W 123°22'1312.8
2014-Dec-13 00:34N 49°09' W 123°03'0 0.3
2014-Dec-12 23:34N 49°09' W 123°02'6 6.4
2014-Dec-12 22:33N 49°07' W 123°12'1110.7
2014-Dec-12 21:33N 48°58' W 123°19'1414.4
2014-Dec-12 20:34N 48°44' W 123°24'2 2.3
2014-Dec-12 19:33N 48°41' W 123°24'0 0.0
2014-Dec-12 18:33N 48°41' W 123°24'2 1.7
2014-Dec-12 17:34N 48°42' W 123°22'1414.2
2014-Dec-12 16:34N 48°56' W 123°18'1212.2
2014-Dec-12 15:34N 49°07' W 123°11'6 6.2
2014-Dec-12 14:34N 49°09' W 123°02'0 0.0
2014-Dec-12 13:33N 49°09' W 123°02'0 0.0
2014-Dec-12 12:34N 49°09' W 123°02'0 0.0
2014-Dec-12 11:34N 49°09' W 123°02'0 0.0
2014-Dec-12 10:34N 49°09' W 123°02'0 0.0
2014-Dec-12 09:34N 49°09' W 123°02'1 0.7
2014-Dec-12 08:33N 49°08' W 123°03'1110.5
2014-Dec-12 07:33N 49°06' W 123°19'10 9.9
2014-Dec-12 06:33N 49°09' W 123°33'1312.6
2014-Dec-12 05:34N 49°12' W 123°52'  
Track history (hours):
 
Tides and Currents Weather Stations Pressure Air Temp Water Temp Dewpoint Dewpoint Depression Visibility Wind Speed Wind Dir Waves Ship Positions

Carrier Princess

Last reported at 2014-Dec-22 06:33 UTC. Time now 2014-Dec-22 07:07 UTC.
Position N 49°09' W 123°02'.

Length 112 m; draft 3 m.

Type: Cargo ship. MMSI: 316003656.

Date/timePositionNaut miles runAvg speedWind from/ knotsBaromVisibWave heightAir tempDewpointWater temp
2014-Dec-22 06:33N 49°09' W 123°02'0 0.0
2014-Dec-22 05:33N 49°09' W 123°02'0 0.0
2014-Dec-22 04:33N 49°09' W 123°02'0 0.0
2014-Dec-22 03:33N 49°09' W 123°02'0 0.0
2014-Dec-22 02:33N 49°09' W 123°02'0 0.0
2014-Dec-22 01:33N 49°09' W 123°02'0 0.0
2014-Dec-22 00:33N 49°09' W 123°02'0 0.0
2014-Dec-21 23:33N 49°09' W 123°02'0 0.0
2014-Dec-21 22:34N 49°09' W 123°02'0 0.0
2014-Dec-21 21:33N 49°09' W 123°02'0 0.0
2014-Dec-21 20:33N 49°09' W 123°02'0 0.0
2014-Dec-21 19:33N 49°09' W 123°02'0 0.0
2014-Dec-21 18:33N 49°09' W 123°02'0 0.0
2014-Dec-21 17:34N 49°09' W 123°02'0 0.0
2014-Dec-21 16:33N 49°09' W 123°02'1 1.3
2014-Dec-21 15:33N 49°08' W 123°04'1110.6
2014-Dec-21 14:34N 49°06' W 123°19'1110.7
2014-Dec-21 13:33N 49°10' W 123°35'1110.8
2014-Dec-21 12:33N 49°13' W 123°51'4 4.4
2014-Dec-21 11:33N 49°10' W 123°56'0 0.0
2014-Dec-21 10:33N 49°10' W 123°56'1 0.6
2014-Dec-21 09:33N 49°10' W 123°55'9 8.6
2014-Dec-21 08:33N 49°12' W 123°42'10 9.7
2014-Dec-21 07:33N 49°09' W 123°28'1110.8
2014-Dec-21 06:34N 49°07' W 123°12'7 6.6
2014-Dec-21 05:33N 49°09' W 123°02'0 0.0
2014-Dec-21 04:33N 49°09' W 123°02'0 0.0
2014-Dec-21 03:33N 49°09' W 123°02'0 0.0
2014-Dec-21 02:33N 49°09' W 123°02'0 0.0
2014-Dec-21 01:33N 49°09' W 123°02'0 0.0
2014-Dec-21 00:33N 49°09' W 123°02'0 0.0
2014-Dec-20 23:33N 49°09' W 123°02'3 2.7
2014-Dec-20 22:34N 49°07' W 123°05'1312.5
2014-Dec-20 21:34N 49°08' W 123°24'1413.9
2014-Dec-20 20:33N 49°12' W 123°44'8 7.7
2014-Dec-20 19:33N 49°10' W 123°56'0 0.0
2014-Dec-20 18:25N 49°10' W 123°56'0 0.0
2014-Dec-20 17:25N 49°10' W 123°56'0 0.0
2014-Dec-20 16:30N 49°10' W 123°56'0 0.0
2014-Dec-20 15:28N 49°10' W 123°56'0 0.0
2014-Dec-20 14:26N 49°10' W 123°56'0 0.0
2014-Dec-20 13:22N 49°10' W 123°56'2 2.0
2014-Dec-20 12:34N 49°11' W 123°54'1212.1
2014-Dec-20 11:33N 49°11' W 123°35'1413.8
2014-Dec-20 10:33N 49°08' W 123°15'8 8.3
2014-Dec-20 09:33N 49°09' W 123°02'0 0.0
2014-Dec-20 08:33N 49°09' W 123°02'6 5.6
2014-Dec-20 07:33N 49°07' W 123°10'1212.4
2014-Dec-20 06:34N 49°09' W 123°29'1414.3
2014-Dec-20 05:33N 49°13' W 123°50'5 4.4
2014-Dec-20 04:28N 49°10' W 123°56'1 0.6
2014-Dec-20 03:33N 49°10' W 123°55'1111.5
2014-Dec-20 02:33N 49°12' W 123°38'1413.8
2014-Dec-20 01:34N 49°06' W 123°19'1111.2
2014-Dec-20 00:33N 49°09' W 123°02'0 0.0
2014-Dec-19 23:33N 49°09' W 123°02'4 3.8
2014-Dec-19 22:33N 49°07' W 123°07'10 9.9
2014-Dec-19 21:33N 49°01' W 123°20'1413.8
2014-Dec-19 20:33N 48°47' W 123°21'7 6.6
2014-Dec-19 19:33N 48°41' W 123°24'0 0.0
2014-Dec-19 18:33N 48°41' W 123°24'0 0.0
2014-Dec-19 17:33N 48°41' W 123°24'0 0.0
2014-Dec-19 16:33N 48°41' W 123°24'0 0.0
2014-Dec-19 15:33N 48°41' W 123°24'0 0.0
2014-Dec-19 14:33N 48°41' W 123°24'0 0.0
2014-Dec-19 13:33N 48°41' W 123°24'3 2.6
2014-Dec-19 12:32N 48°44' W 123°24'1111.2
2014-Dec-19 11:34N 48°54' W 123°18'1413.6
2014-Dec-19 10:34N 49°08' W 123°14'8 8.0
2014-Dec-19 09:33N 49°09' W 123°02'0 0.0
2014-Dec-19 08:33N 49°09' W 123°02'7 6.5
2014-Dec-19 07:34N 49°07' W 123°12'1212.4
2014-Dec-19 06:34N 49°09' W 123°31'1414.4
2014-Dec-19 05:33N 49°12' W 123°52'3 3.0
2014-Dec-19 04:26N 49°10' W 123°56'1 0.6
2014-Dec-19 03:33N 49°10' W 123°55'1111.2
2014-Dec-19 02:33N 49°12' W 123°38'1313.5
2014-Dec-19 01:33N 49°06' W 123°19'1211.6
2014-Dec-19 00:34N 49°09' W 123°02'0 0.0
2014-Dec-18 23:34N 49°09' W 123°02'6 5.7
2014-Dec-18 22:33N 49°07' W 123°10'10 9.8
2014-Dec-18 21:33N 48°59' W 123°21'1110.9
2014-Dec-18 20:33N 48°49' W 123°20'8 7.8
2014-Dec-18 19:33N 48°41' W 123°24'0 0.0
2014-Dec-18 18:33N 48°41' W 123°24'0 0.0
2014-Dec-18 17:33N 48°41' W 123°24'0 0.0
2014-Dec-18 16:33N 48°41' W 123°24'0 0.0
2014-Dec-18 15:33N 48°41' W 123°24'0 0.0
2014-Dec-18 14:33N 48°41' W 123°24'0 0.0
2014-Dec-18 13:33N 48°41' W 123°24'1 1.1
2014-Dec-18 12:33N 48°42' W 123°24'1312.7
2014-Dec-18 11:33N 48°54' W 123°18'1313.2
2014-Dec-18 10:33N 49°08' W 123°15'9 8.6
2014-Dec-18 09:33N 49°09' W 123°02'0 0.0
2014-Dec-18 08:33N 49°09' W 123°02'7 7.2
2014-Dec-18 07:33N 49°08' W 123°13'1211.9
2014-Dec-18 06:33N 49°09' W 123°31'1312.9
2014-Dec-18 05:33N 49°13' W 123°50'5 4.7
2014-Dec-18 04:33N 49°10' W 123°56'1 1.0
2014-Dec-18 03:32N 49°10' W 123°54'1010.6
2014-Dec-18 02:33N 49°12' W 123°38'1313.3
2014-Dec-18 01:33N 49°06' W 123°20'1211.8
2014-Dec-18 00:34N 49°09' W 123°02'0 0.1
2014-Dec-17 23:33N 49°09' W 123°02'5 4.7
2014-Dec-17 22:33N 49°06' W 123°08'8 8.4
2014-Dec-17 21:33N 49°01' W 123°18'1312.5
2014-Dec-17 20:33N 48°49' W 123°20'8 8.0
2014-Dec-17 19:34N 48°41' W 123°24'0 0.0
2014-Dec-17 18:33N 48°41' W 123°24'0 0.0
2014-Dec-17 17:34N 48°41' W 123°24'0 0.0
2014-Dec-17 16:34N 48°41' W 123°24'0 0.0
2014-Dec-17 15:34N 48°41' W 123°24'0 0.0
2014-Dec-17 14:34N 48°41' W 123°24'0 0.0
2014-Dec-17 13:34N 48°41' W 123°24'3 3.0
2014-Dec-17 12:33N 48°43' W 123°21'1414.4
2014-Dec-17 11:33N 48°58' W 123°18'1110.7
2014-Dec-17 10:33N 49°07' W 123°11'6 6.3
2014-Dec-17 09:33N 49°09' W 123°02'0 0.0
2014-Dec-17 08:33N 49°09' W 123°02'7 7.0
2014-Dec-17 07:34N 49°08' W 123°13'1212.0
2014-Dec-17 06:33N 49°09' W 123°31'1313.1
2014-Dec-17 05:33N 49°13' W 123°50'5 5.1
2014-Dec-17 04:33N 49°10' W 123°56'0 0.1
2014-Dec-17 03:33N 49°10' W 123°56'1111.1
2014-Dec-17 02:33N 49°11' W 123°39'1313.5
2014-Dec-17 01:34N 49°06' W 123°20'1211.7
2014-Dec-17 00:33N 49°09' W 123°02'0 0.0
2014-Dec-16 23:33N 49°09' W 123°02'4 4.4
2014-Dec-16 22:33N 49°06' W 123°08'9 9.4
2014-Dec-16 21:33N 49°00' W 123°19'1313.1
2014-Dec-16 20:33N 48°47' W 123°21'6 6.4
2014-Dec-16 19:34N 48°41' W 123°24'0 0.0
2014-Dec-16 18:34N 48°41' W 123°24'0 0.0
2014-Dec-16 17:34N 48°41' W 123°24'0 0.0
2014-Dec-16 16:33N 48°41' W 123°24'0 0.0
2014-Dec-16 15:34N 48°41' W 123°24'0 0.0
2014-Dec-16 14:34N 48°41' W 123°24'0 0.0
2014-Dec-16 13:34N 48°41' W 123°24'3 2.8
2014-Dec-16 12:33N 48°44' W 123°23'1111.3
2014-Dec-16 11:33N 48°55' W 123°18'1312.9
2014-Dec-16 10:33N 49°07' W 123°15'9 8.8
2014-Dec-16 09:33N 49°09' W 123°02'0 0.0
2014-Dec-16 08:33N 49°09' W 123°02'7 7.2
2014-Dec-16 07:34N 49°08' W 123°13'1211.5
2014-Dec-16 06:33N 49°09' W 123°31'1413.6
2014-Dec-16 05:33N 49°13' W 123°50'5 4.4
2014-Dec-16 04:32N 49°10' W 123°56'1 1.1
2014-Dec-16 03:32N 49°10' W 123°54'1111.0
2014-Dec-16 02:33N 49°11' W 123°38'1312.5
2014-Dec-16 01:33N 49°06' W 123°20'1210.8
2014-Dec-16 00:26N 49°09' W 123°02'0 0.0
2014-Dec-15 23:33N 49°09' W 123°02'0 0.0
2014-Dec-15 22:34N 49°09' W 123°02'0 0.2
2014-Dec-15 21:33N 49°09' W 123°02'0 0.0
2014-Dec-15 20:33N 49°09' W 123°02'0 0.0
2014-Dec-15 19:33N 49°09' W 123°02'0 0.0
2014-Dec-15 18:34N 49°09' W 123°02'0 0.0
2014-Dec-15 17:33N 49°09' W 123°02'0 0.0
2014-Dec-15 16:34N 49°09' W 123°02'0 0.0
2014-Dec-15 15:33N 49°09' W 123°02'0 0.0
2014-Dec-15 14:33N 49°09' W 123°02'0 0.0
2014-Dec-15 13:33N 49°09' W 123°02'0 0.0
2014-Dec-15 12:33N 49°09' W 123°02'0 0.0
2014-Dec-15 11:33N 49°09' W 123°02'0 0.0
2014-Dec-15 10:33N 49°09' W 123°02'0 0.0
2014-Dec-15 09:33N 49°09' W 123°02'0 0.0
2014-Dec-15 08:33N 49°09' W 123°02'0 0.0
2014-Dec-15 07:33N 49°09' W 123°02'0 0.0
2014-Dec-15 06:33N 49°09' W 123°02'0 0.0
2014-Dec-15 05:33N 49°09' W 123°02'0 0.0
2014-Dec-15 04:33N 49°09' W 123°02'0 0.0
2014-Dec-15 03:33N 49°09' W 123°02'0 0.0
2014-Dec-15 02:33N 49°09' W 123°02'0 0.0
2014-Dec-15 01:33N 49°09' W 123°02'0 0.0
2014-Dec-15 00:33N 49°09' W 123°02'0 0.0
2014-Dec-14 23:33N 49°09' W 123°02'0 0.0
2014-Dec-14 22:33N 49°09' W 123°02'0 0.0
2014-Dec-14 21:33N 49°09' W 123°02'0 0.0
2014-Dec-14 20:33N 49°09' W 123°02'0 0.0
2014-Dec-14 19:33N 49°09' W 123°02'0 0.0
2014-Dec-14 18:33N 49°09' W 123°02'0 0.0
2014-Dec-14 17:33N 49°09' W 123°02'0 0.0
2014-Dec-14 16:33N 49°09' W 123°02'2 2.0
2014-Dec-14 15:33N 49°07' W 123°04'10 9.8
2014-Dec-14 14:33N 49°06' W 123°19'1010.4
2014-Dec-14 13:33N 49°09' W 123°34'1110.5
2014-Dec-14 12:33N 49°13' W 123°49'5 4.4
2014-Dec-14 11:23N 49°10' W 123°56'2 0.9
2014-Dec-14 09:33N 49°11' W 123°54'8 8.1
2014-Dec-14 08:33N 49°12' W 123°42'10 9.7
2014-Dec-14 07:33N 49°09' W 123°28'1010.0
2014-Dec-14 06:33N 49°08' W 123°12'7 6.9
2014-Dec-14 05:34N 49°09' W 123°02'0 0.0
2014-Dec-14 04:34N 49°09' W 123°02'0 0.0
2014-Dec-14 03:33N 49°09' W 123°02'0 0.0
2014-Dec-14 02:33N 49°09' W 123°02'0 0.0
2014-Dec-14 01:33N 49°09' W 123°02'0 0.0
2014-Dec-14 00:34N 49°09' W 123°02'0 0.0
2014-Dec-13 23:33N 49°09' W 123°02'4 3.7
2014-Dec-13 22:33N 49°07' W 123°07'1211.6
2014-Dec-13 21:34N 49°07' W 123°24'1414.0
2014-Dec-13 20:33N 49°12' W 123°44'8 7.6
2014-Dec-13 19:33N 49°10' W 123°56'0 0.0
2014-Dec-13 18:33N 49°10' W 123°56'0 0.0
2014-Dec-13 17:23N 49°10' W 123°56'0 0.0
2014-Dec-13 16:23N 49°10' W 123°56'0 0.0
2014-Dec-13 15:33N 49°10' W 123°56'0 0.0
2014-Dec-13 13:32N 49°10' W 123°56'4 4.5
2014-Dec-13 12:34N 49°13' W 123°51'1111.2
2014-Dec-13 11:33N 49°11' W 123°34'1212.2
2014-Dec-13 10:33N 49°07' W 123°16'9 9.4
2014-Dec-13 09:34N 49°09' W 123°02'0 0.0
2014-Dec-13 08:34N 49°09' W 123°02'7 6.8
2014-Dec-13 07:33N 49°07' W 123°12'1110.9
2014-Dec-13 06:33N 49°08' W 123°29'1312.4
2014-Dec-13 05:33N 49°13' W 123°47'6 6.0
2014-Dec-13 04:28N 49°10' W 123°56'0 0.1
2014-Dec-13 03:33N 49°10' W 123°56'1010.5
2014-Dec-13 02:33N 49°12' W 123°40'1312.7
2014-Dec-13 01:33N 49°07' W 123°22'1312.8
2014-Dec-13 00:34N 49°09' W 123°03'0 0.3
2014-Dec-12 23:34N 49°09' W 123°02'6 6.4
2014-Dec-12 22:33N 49°07' W 123°12'1110.7
2014-Dec-12 21:33N 48°58' W 123°19'1414.4
2014-Dec-12 20:34N 48°44' W 123°24'2 2.3
2014-Dec-12 19:33N 48°41' W 123°24'0 0.0
2014-Dec-12 18:33N 48°41' W 123°24'2 1.7
2014-Dec-12 17:34N 48°42' W 123°22'1414.2
2014-Dec-12 16:34N 48°56' W 123°18'1212.2
2014-Dec-12 15:34N 49°07' W 123°11'6 6.2
2014-Dec-12 14:34N 49°09' W 123°02'0 0.0
2014-Dec-12 13:33N 49°09' W 123°02'0 0.0
2014-Dec-12 12:34N 49°09' W 123°02'0 0.0
2014-Dec-12 11:34N 49°09' W 123°02'0 0.0
2014-Dec-12 10:34N 49°09' W 123°02'0 0.0
2014-Dec-12 09:34N 49°09' W 123°02'1 0.7
2014-Dec-12 08:33N 49°08' W 123°03'1110.5
2014-Dec-12 07:33N 49°06' W 123°19'10 9.9
2014-Dec-12 06:33N 49°09' W 123°33'1312.6
2014-Dec-12 05:34N 49°12' W 123°52'  

Dump ship's entire track history